Portada
METAR-TAF:

METAR-TAF

Aeropuertos :

Plataforma petrolífera

Snorre B, Noruega

latitud: 61-32N, longitud: 2-12E, altitud: 90 m

Observación

El informe se hizo hace 12 minutos, a las 14:50 UTC
Viento 25 kt del norte-noreste
Temperatura 13°C
Humedad 88%
Presión 1008 hPa
Visibilidad: 7000 m

METAR: ENQR 141450Z AUTO 03025KT 7000 OVC005/// 13/11 Q1008 W20/S4

Hora: 17:02 (15:02 UTC)


TAF: falta

Observaciones y pronósticos meteorológicos de más de 4000 aeropuertos (mensajes METAR y TAF).

Los puntos amarillos y rojos representan las estaciones disponibles.

Ponga el ratón en el punto deseado para ver el nombre de la estación.

Haga clic para ver las observaciones y los pronósticos meteorológicos.

Para cambiar el mapa : haga clic en los botones verdes con una cruz de color negro para hacer un zoom, en el botón verde con un guión para alejar o en las flechas verdes para mapas adyacentes.


METAR-TAF: